Ringgold, VA

9:32 AM EDT on June 26, 2016 (GMT -0400)
Danville Regional | Change Station
CLOSE
Current Station
Airport
Location: Danville,
Elevation: 571 ft
Nearby Weather Stations

Elev 571 ft 36.57 °N, 79.34 °W | Updated 39 minutes ago

Clear
Clear
73 °F
Feels Like 73 °F
N
0
Wind Variable Wind from North

Today
High -- | Low -- °F
--% Chance of Precip.
Yesterday
High -- | Low -- °F
Precip. -- in
6:00 AM 8:39 PM
Waning Gibbous, 63% visible
Pressure 30.20 in
Visibility 10.0 miles
Clouds Clear
Dew Point 63 °F
Humidity 71%
Rainfall 0.00 in
Snow Depth Not available.
UV 3 out of 12
Pollen 3.30 out of 12
Air Quality Not available.
Flu Activity Not available.
METAR KDAN 261253Z AUTO 00000KT 10SM CLR 23/17 A3023 RMK AO2 SLP227 T02280172

More Conditions Fewer Conditions

Pressure 30.20 in
Visibility 10.0 miles
Clouds Clear
Dew Point 63 °F
Humidity 71%
Rainfall 0.00 in
Snow Depth Not available.
UV 3 out of 12
Pollen 3.30 out of 12
Air Quality Not available.
Flu Activity Not available.
METAR KDAN 261253Z AUTO 00000KT 10SM CLR 23/17 A3023 RMK AO2 SLP227 T02280172

More Conditions Fewer Conditions

10-Day Weather Forecast

Almanac

Astronomy

Jun. 26, 2016 Rise Set
Actual Time 6:00 AM EDT 8:39 PM EDT
Civil Twilight 5:30 AM EDT 9:10 PM EDT
Nautical Twilight 4:52 AM EDT 9:48 PM EDT
Astronomical Twilight 4:09 AM EDT 10:30 PM EDT
Moon 12:20 AM EDT 12:13 PM EDT
Length of Visible Light 15h 40m
Length of Day
14h 38m
Tomorrow will be 0m 20s shorter.
Waning Gibbous, 63% of the Moon is Illuminated
Today
Waning Gibbous
Jun 27
Last Quarter
Jul 4
New
Jul 11
First Quarter
Jul 19
Full

Yesterday's Extremes

State Highs State Lows

Community

WunderPhotos

Upload Photos

1,920,762 photos uploaded!

Nearby

Snow Depth

Station Depth Elevation
No new snow has been reported.

Earthquake Activity

City Distance Mag. Time & Date
No recent earthquake activity has been reported nearby.
Minimum magnitude displayed is 2.5.

Coastal Water Temperatures

Place Temperature
No Stations Reporting

Nearby Weather Stations